createdAt,value
2022-11-22T00:03:52.697Z,120.90
2022-11-22T00:08:53.870Z,119.40
2022-11-22T00:13:57.384Z,103.20
2022-11-22T00:18:59.054Z,100.80
2022-11-22T00:24:03.083Z,95.40
2022-11-22T00:29:04.352Z,97.70
2022-11-22T00:34:10.720Z,99.00
2022-11-22T00:39:11.811Z,81.20
2022-11-22T00:44:12.956Z,81.60
2022-11-22T00:49:14.036Z,83.40
2022-11-22T00:54:15.364Z,70.20
2022-11-22T00:59:16.533Z,81.50
2022-11-22T01:04:17.805Z,83.80
2022-11-22T01:09:22.037Z,82.70
2022-11-22T01:14:41.988Z,85.00
2022-11-22T01:19:43.193Z,83.20
2022-11-22T01:24:44.343Z,76.30
2022-11-22T01:29:45.487Z,76.90
2022-11-22T01:34:46.675Z,83.20
2022-11-22T01:39:47.941Z,75.60
2022-11-22T01:44:50.044Z,77.30
2022-11-22T01:50:06.958Z,83.10
2022-11-22T01:55:12.250Z,76.50
2022-11-22T02:00:16.236Z,69.20
2022-11-22T02:05:23.641Z,66.90
2022-11-22T02:10:28.590Z,71.90
2022-11-22T02:15:29.956Z,74.30
2022-11-22T02:20:31.358Z,72.40
2022-11-22T02:25:41.494Z,77.40
2022-11-22T02:30:42.631Z,77.50
2022-11-22T02:35:43.955Z,64.80
2022-11-22T02:40:53.000Z,63.40
2022-11-22T02:45:54.529Z,66.10
2022-11-22T02:50:55.625Z,68.40
2022-11-22T02:55:57.566Z,58.60
2022-11-22T03:00:58.681Z,59.70
2022-11-22T03:06:01.793Z,55.60
2022-11-22T03:11:03.044Z,54.20
2022-11-22T03:16:04.768Z,56.10
2022-11-22T03:21:08.113Z,49.70
2022-11-22T03:26:11.099Z,44.40
2022-11-22T03:31:12.246Z,43.40
2022-11-22T03:36:13.822Z,46.10
2022-11-22T03:41:14.988Z,45.60
2022-11-22T03:46:18.851Z,44.70
2022-11-22T03:51:19.961Z,42.40
2022-11-22T03:56:22.285Z,46.40
2022-11-22T04:01:23.493Z,47.00
2022-11-22T04:06:24.841Z,53.90
2022-11-22T04:11:25.943Z,50.10
2022-11-22T04:16:27.101Z,50.80
2022-11-22T04:21:34.514Z,52.90
2022-11-22T04:26:35.999Z,47.40
2022-11-22T04:31:56.509Z,50.10
2022-11-22T04:36:58.607Z,51.90
2022-11-22T04:42:18.716Z,51.10
2022-11-22T04:47:38.473Z,50.70
2022-11-22T04:52:54.987Z,62.00
2022-11-22T04:57:59.728Z,60.30
2022-11-22T05:03:02.544Z,72.80
2022-11-22T05:08:05.229Z,56.30
2022-11-22T05:13:06.385Z,58.80
2022-11-22T05:18:07.474Z,58.90
2022-11-22T05:23:27.421Z,65.40
2022-11-22T05:28:30.546Z,57.00
2022-11-22T05:33:31.660Z,57.20
2022-11-22T05:38:37.206Z,54.40
2022-11-22T05:43:38.694Z,57.30
2022-11-22T05:48:42.425Z,64.00
2022-11-22T05:53:44.548Z,61.70
2022-11-22T05:58:46.232Z,62.50
2022-11-22T06:03:48.307Z,58.70
2022-11-22T06:08:50.690Z,60.60
2022-11-22T06:13:55.198Z,59.80
2022-11-22T06:18:56.539Z,63.90
2022-11-22T06:23:57.632Z,65.10
2022-11-22T06:28:58.765Z,66.20
2022-11-22T06:34:00.236Z,66.30
2022-11-22T06:39:02.927Z,73.00
2022-11-22T06:44:07.180Z,72.70
2022-11-22T06:49:08.270Z,75.90
2022-11-22T06:54:11.050Z,72.90
2022-11-22T06:59:12.378Z,82.40
2022-11-22T07:04:13.500Z,81.20
2022-11-22T07:09:15.823Z,79.20
2022-11-22T07:14:17.020Z,84.40
2022-11-22T07:19:18.063Z,83.70
2022-11-22T07:24:19.135Z,90.20
2022-11-22T07:29:20.194Z,101.40
2022-11-22T07:34:21.344Z,92.30
2022-11-22T07:39:22.539Z,89.70
2022-11-22T07:44:23.601Z,91.60
2022-11-22T07:49:24.747Z,88.30
2022-11-22T07:54:25.924Z,81.00
2022-11-22T07:59:27.189Z,76.00
2022-11-22T08:04:28.672Z,71.60
2022-11-22T08:09:29.929Z,70.20
2022-11-22T08:14:31.228Z,71.20
2022-11-22T08:19:35.181Z,72.30
2022-11-22T08:24:36.254Z,75.30
2022-11-22T08:29:37.375Z,70.10
2022-11-22T08:34:42.767Z,71.20
2022-11-22T08:39:56.946Z,62.50
2022-11-22T08:44:58.002Z,64.70
2022-11-22T08:49:59.123Z,63.20
2022-11-22T08:55:00.680Z,63.70
2022-11-22T09:00:02.040Z,67.20
2022-11-22T09:05:03.747Z,88.90
2022-11-22T09:10:07.557Z,77.40
2022-11-22T09:15:09.519Z,63.10
2022-11-22T09:20:11.402Z,52.90
2022-11-22T09:25:12.513Z,60.80
2022-11-22T09:30:14.035Z,55.20
2022-11-22T09:35:16.666Z,55.30
2022-11-22T09:40:17.922Z,53.80
2022-11-22T09:45:44.135Z,49.50
2022-11-22T09:51:08.231Z,41.20
2022-11-22T09:56:16.075Z,31.80
2022-11-22T10:01:30.824Z,29.00
2022-11-22T10:06:41.582Z,26.00
2022-11-22T10:11:48.767Z,23.50
2022-11-22T10:17:00.600Z,19.50
2022-11-22T10:22:01.698Z,19.70
2022-11-22T10:27:04.357Z,21.20
2022-11-22T10:32:16.587Z,20.70
2022-11-22T10:37:17.569Z,17.30
2022-11-22T10:42:43.948Z,17.80
2022-11-22T10:47:56.224Z,18.00
2022-11-22T10:53:17.666Z,15.30
2022-11-22T10:58:34.405Z,15.20
2022-11-22T11:03:41.048Z,18.40
2022-11-22T11:09:28.586Z,26.40
2022-11-22T11:14:20.380Z,25.00
2022-11-22T11:19:27.402Z,18.30
2022-11-22T11:24:30.229Z,19.90
2022-11-22T11:29:38.444Z,20.70
2022-11-22T11:34:46.514Z,17.50
2022-11-22T11:39:47.915Z,16.90
2022-11-22T11:44:48.980Z,16.10
2022-11-22T11:49:51.035Z,17.70
2022-11-22T11:54:55.428Z,20.10
2022-11-22T11:59:59.866Z,19.00
2022-11-22T12:05:26.297Z,19.00
2022-11-22T12:10:33.180Z,18.80
2022-11-22T12:15:52.750Z,19.10
2022-11-22T12:21:13.245Z,29.30
2022-11-22T12:26:14.930Z,26.80
2022-11-22T12:31:25.217Z,27.70
2022-11-22T12:36:42.685Z,26.40
2022-11-22T12:41:47.833Z,26.00
2022-11-22T12:46:55.864Z,23.20
2022-11-22T12:52:26.106Z,20.50
2022-11-22T12:57:49.542Z,19.10
2022-11-22T13:03:14.913Z,19.70
2022-11-22T13:08:42.623Z,22.30
2022-11-22T13:13:47.943Z,24.60
2022-11-22T13:18:59.661Z,22.90
2022-11-22T13:24:10.056Z,26.40
2022-11-22T13:29:23.488Z,34.70
2022-11-22T13:34:25.990Z,38.80
2022-11-22T13:39:27.242Z,30.90
2022-11-22T13:44:31.438Z,35.20
2022-11-22T13:49:37.456Z,33.80
2022-11-22T13:54:46.195Z,27.60
2022-11-22T13:59:52.094Z,27.10
2022-11-22T14:04:55.320Z,28.50
2022-11-22T14:09:57.735Z,31.30
2022-11-22T14:15:17.917Z,28.50
2022-11-22T14:20:18.964Z,55.80
2022-11-22T14:25:38.514Z,37.50
2022-11-22T14:30:53.449Z,32.60
2022-11-22T14:36:06.900Z,35.20
2022-11-22T14:41:27.238Z,31.40
2022-11-22T14:46:52.780Z,30.50
2022-11-22T14:51:55.605Z,30.50
2022-11-22T14:57:04.618Z,31.10
2022-11-22T15:02:43.312Z,29.30
2022-11-22T15:09:14.557Z,33.90
2022-11-22T15:13:41.644Z,34.90
2022-11-22T15:57:58.986Z,51.50
2022-11-22T16:03:02.352Z,39.40
2022-11-22T16:08:05.562Z,35.10
2022-11-22T16:13:18.792Z,35.10
2022-11-22T16:18:27.538Z,36.30
2022-11-22T16:23:36.693Z,41.60
2022-11-22T16:28:37.764Z,35.80
2022-11-22T16:33:38.868Z,32.90
2022-11-22T16:38:40.501Z,35.10
2022-11-22T16:43:41.578Z,39.00
2022-11-22T16:48:43.128Z,34.40
2022-11-22T16:53:46.521Z,44.20
2022-11-22T16:58:48.951Z,56.10
2022-11-22T17:03:54.280Z,71.60
2022-11-22T17:08:57.740Z,48.30
2022-11-22T17:13:59.865Z,44.10
2022-11-22T17:19:00.938Z,39.20
2022-11-22T17:24:14.904Z,45.20
2022-11-22T17:29:35.255Z,46.10
2022-11-22T17:34:37.610Z,41.30
2022-11-22T17:39:39.180Z,44.70
2022-11-22T17:44:40.275Z,39.80
2022-11-22T17:49:41.461Z,37.50
2022-11-22T17:54:42.587Z,37.00
2022-11-22T17:59:44.332Z,45.90
2022-11-22T18:04:45.393Z,41.50
2022-11-22T18:09:50.930Z,47.80
2022-11-22T18:14:52.238Z,48.00
2022-11-22T18:19:53.526Z,53.50
2022-11-22T18:24:54.771Z,57.50
2022-11-22T18:29:56.184Z,48.20
2022-11-22T18:34:57.594Z,50.50
2022-11-22T18:39:58.778Z,55.50
2022-11-22T18:44:59.963Z,48.90
2022-11-22T18:50:01.100Z,46.60
2022-11-22T18:55:02.194Z,43.20
2022-11-22T19:00:03.528Z,43.80
2022-11-22T19:05:05.007Z,34.80
2022-11-22T19:10:07.215Z,38.30
2022-11-22T19:15:09.603Z,38.30
2022-11-22T19:20:32.144Z,40.80
2022-11-22T19:25:34.529Z,41.10
2022-11-22T19:30:39.781Z,43.40
2022-11-22T19:35:57.624Z,56.30
2022-11-22T19:40:59.091Z,60.20
2022-11-22T19:46:01.274Z,73.70
2022-11-22T19:51:13.369Z,58.30
2022-11-22T19:56:17.259Z,56.20
2022-11-22T20:01:20.120Z,50.60
2022-11-22T20:06:21.392Z,96.70
2022-11-22T20:11:22.644Z,62.80
2022-11-22T20:16:26.249Z,61.20
2022-11-22T20:21:30.659Z,61.40
2022-11-22T20:26:33.088Z,60.60
2022-11-22T20:31:36.355Z,62.40
2022-11-22T20:36:37.510Z,67.40
2022-11-22T20:41:39.989Z,64.10
2022-11-22T20:46:41.882Z,62.20
2022-11-22T20:51:42.983Z,66.60
2022-11-22T20:56:44.144Z,67.90
2022-11-22T21:01:46.426Z,57.90
2022-11-22T21:06:47.542Z,56.80
2022-11-22T21:11:48.669Z,46.10
2022-11-22T21:16:49.764Z,40.10
2022-11-22T21:21:50.854Z,36.20
2022-11-22T21:26:51.969Z,35.10
2022-11-22T21:31:53.144Z,37.00
2022-11-22T21:36:54.272Z,36.60
2022-11-22T21:41:55.347Z,39.50
2022-11-22T21:46:56.460Z,46.40
2022-11-22T21:51:58.509Z,44.30
2022-11-22T21:57:02.736Z,36.00
2022-11-22T22:02:04.245Z,45.00
2022-11-22T22:07:05.489Z,44.30
2022-11-22T22:12:10.782Z,39.10
2022-11-22T22:17:11.915Z,40.60
2022-11-22T22:22:13.007Z,43.30
2022-11-22T22:27:14.081Z,44.70
2022-11-22T22:32:15.622Z,40.20
2022-11-22T22:37:16.833Z,37.80
2022-11-22T22:42:18.881Z,39.70
2022-11-22T22:47:20.094Z,39.60
2022-11-22T22:52:21.201Z,38.10
2022-11-22T22:57:22.365Z,43.30
2022-11-22T23:02:23.640Z,44.80
2022-11-22T23:07:24.836Z,48.10
2022-11-22T23:12:26.702Z,50.90
2022-11-22T23:17:27.953Z,51.70
2022-11-22T23:22:29.101Z,54.40
2022-11-22T23:27:30.243Z,55.00
2022-11-22T23:32:31.409Z,56.10
2022-11-22T23:37:32.538Z,59.20
2022-11-22T23:42:33.599Z,56.60
2022-11-22T23:47:34.650Z,54.80
2022-11-22T23:52:35.769Z,52.10
2022-11-22T23:57:36.999Z,52.10
